Time;durP1;ratioP1;P1;durP2;ratioP2;P2;SDS_P1;SDS_P2;PMS_P1;PMS_P2;Temp;Humidity;BMP_temperature;BMP_pressure;BME280_temperature;BME280_humidity;BME280_pressure;Samples;Min_cycle;Max_cycle;Signal;HPM_P1;HPM_P2
2022/01/10 00:00:15;;;;;;;25.13;10.60;;;2.20;99.90;;;;;;5074810;28;20043;-73
2022/01/10 00:02:43;;;;;;;18.63;8.45;;;2.20;99.90;;;;;;5087044;28;20044;-72
2022/01/10 00:05:09;;;;;;;15.80;6.20;;;2.20;99.90;;;;;;5095346;28;20039;-73
2022/01/10 00:07:35;;;;;;;18.23;8.35;;;2.30;99.90;;;;;;5093814;28;20047;-73
2022/01/10 00:10:03;;;;;;;19.77;6.70;;;2.20;99.90;;;;;;5078115;28;20043;-73
2022/01/10 00:12:28;;;;;;;18.83;7.55;;;2.10;99.90;;;;;;5093751;28;20076;-72
2022/01/10 00:14:54;;;;;;;20.65;5.75;;;2.00;99.90;;;;;;5093310;28;20504;-73
2022/01/10 00:17:20;;;;;;;12.32;5.93;;;2.10;99.90;;;;;;5078651;28;20108;-72
2022/01/10 00:19:46;;;;;;;13.93;5.82;;;2.20;99.90;;;;;;5095320;28;20082;-72
2022/01/10 00:22:12;;;;;;;17.42;5.38;;;3.30;99.90;;;;;;5094343;28;20046;-75
2022/01/10 00:24:38;;;;;;;10.63;5.35;;;2.10;99.90;;;;;;5078526;28;20108;-75
2022/01/10 00:27:04;;;;;;;15.30;4.80;;;2.10;99.90;;;;;;5094137;28;20426;-73
2022/01/10 00:29:37;;;;;;;15.40;4.65;;;2.30;99.90;;;;;;5129879;27;20743;-72
2022/01/10 00:32:03;;;;;;;11.93;4.28;;;1.90;99.90;;;;;;5128602;28;20108;-72
2022/01/10 00:34:29;;;;;;;12.68;4.50;;;2.10;99.90;;;;;;5138598;27;20081;-72
2022/01/10 00:36:54;;;;;;;14.27;4.28;;;3.50;99.90;;;;;;5148648;27;20079;-72
2022/01/10 00:39:20;;;;;;;12.43;4.18;;;2.10;99.90;;;;;;5149915;27;20404;-72
2022/01/10 00:41:46;;;;;;;12.32;4.28;;;2.10;99.90;;;;;;5142496;27;20066;-72
2022/01/10 00:44:13;;;;;;;15.13;5.10;;;2.20;99.90;;;;;;5127983;28;20039;-72
2022/01/10 00:46:40;;;;;;;10.45;4.22;;;3.60;99.90;;;;;;5129093;28;20047;-72
2022/01/10 00:49:05;;;;;;;13.63;4.15;;;2.20;99.90;;;;;;5127987;28;20633;-71
2022/01/10 00:51:31;;;;;;;12.75;4.28;;;2.20;99.90;;;;;;5128296;27;20383;-72
2022/01/10 00:53:57;;;;;;;15.57;4.88;;;2.10;99.90;;;;;;5128657;28;20051;-72
2022/01/10 00:56:24;;;;;;;14.98;4.60;;;2.00;99.90;;;;;;5127722;28;20035;-72
2022/01/10 00:58:50;;;;;;;14.93;4.53;;;2.50;99.90;;;;;;5128458;28;20054;-72
2022/01/10 01:01:17;;;;;;;14.73;4.80;;;1.80;99.90;;;;;;5111046;27;20100;-72
2022/01/10 01:03:43;;;;;;;10.98;4.88;;;1.80;99.90;;;;;;5131431;27;20136;-72
2022/01/10 01:06:11;;;;;;;11.88;3.88;;;;;;;;;;5148920;27;20125;-72
2022/01/10 01:08:37;;;;;;;16.13;4.90;;;1.80;99.90;;;;;;5149372;27;20049;-72
2022/01/10 01:16:17;;;;;;;15.85;5.63;;;1.70;99.90;;;;;;5127750;28;20488;-72
2022/01/10 01:24:08;;;;;;;16.15;5.05;;;1.70;99.90;;;;;;5128021;28;20445;-72
2022/01/10 01:26:35;;;;;;;17.45;4.50;;;2.60;99.90;;;;;;5127889;27;20035;-71
2022/01/10 01:29:02;;;;;;;12.75;4.22;;;1.70;99.90;;;;;;5128072;27;20493;-71
2022/01/10 01:31:28;;;;;;;13.00;4.57;;;1.40;99.90;;;;;;5107344;28;20637;-71
2022/01/10 01:33:53;;;;;;;17.05;5.47;;;1.90;99.90;;;;;;5106850;28;20086;-72
2022/01/10 01:36:23;;;;;;;12.07;4.95;;;;;;;;;;5107613;28;20401;-71
2022/01/10 01:38:49;;;;;;;14.10;4.00;;;1.70;99.90;;;;;;5105799;28;20040;-71
2022/01/10 01:41:36;;;;;;;15.65;4.43;;;1.70;99.90;;;;;;5076413;28;20473;-71
2022/01/10 01:44:03;;;;;;;14.32;4.97;;;1.70;99.90;;;;;;5093333;28;20047;-71
2022/01/10 01:46:29;;;;;;;14.50;4.85;;;1.70;99.90;;;;;;5092422;28;20040;-71
2022/01/10 01:48:55;;;;;;;14.50;5.03;;;1.70;99.90;;;;;;5092553;28;20489;-71
2022/01/10 01:51:22;;;;;;;13.95;4.47;;;1.70;99.90;;;;;;5094092;28;20057;-71
2022/01/10 01:53:48;;;;;;;16.27;5.68;;;1.70;99.90;;;;;;5075813;28;20161;-72
2022/01/10 01:56:16;;;;;;;21.88;4.68;;;1.70;99.90;;;;;;5076468;28;20130;-71
2022/01/10 01:58:43;;;;;;;12.15;4.35;;;1.60;99.90;;;;;;5093743;28;20058;-71
2022/01/10 02:01:10;;;;;;;14.75;4.40;;;;;;;;;;5092267;28;20043;-71
2022/01/10 02:03:41;;;;;;;16.90;5.30;;;;;;;;;;5093403;28;20040;-71
2022/01/10 02:06:08;;;;;;;18.83;4.85;;;1.60;99.90;;;;;;5092497;28;20044;-71
2022/01/10 02:08:36;;;;;;;21.42;5.50;;;1.50;99.90;;;;;;5092103;28;20504;-71
2022/01/10 02:11:03;;;;;;;17.70;4.82;;;1.60;99.90;;;;;;5092782;28;20047;-71
2022/01/10 02:13:28;;;;;;;11.40;4.30;;;1.50;99.90;;;;;;5093030;28;20047;-71
2022/01/10 02:16:00;;;;;;;13.95;5.28;;;1.50;99.90;;;;;;5075182;28;20036;-71
2022/01/10 02:18:26;;;;;;;16.77;4.57;;;1.50;99.90;;;;;;5093118;28;20051;-71
2022/01/10 02:20:52;;;;;;;14.10;4.75;;;1.50;99.90;;;;;;5091692;28;20035;-71
2022/01/10 02:23:19;;;;;;;13.65;4.20;;;1.50;99.90;;;;;;5076359;28;20533;-72
2022/01/10 02:25:46;;;;;;;13.43;4.75;;;1.40;99.90;;;;;;5093247;28;20055;-72
2022/01/10 02:28:13;;;;;;;16.77;5.70;;;1.40;99.90;;;;;;5074729;28;20052;-72
2022/01/10 02:30:39;;;;;;;16.80;6.07;;;1.20;99.90;;;;;;5076344;28;20036;-72
2022/01/10 02:33:05;;;;;;;9.95;4.57;;;1.40;99.90;;;;;;5075230;28;20107;-72
2022/01/10 02:35:38;;;;;;;13.10;4.60;;;1.40;99.90;;;;;;5105913;28;20483;-72
2022/01/10 02:38:04;;;;;;;8.57;3.70;;;3.40;99.90;;;;;;5075329;28;20031;-71
2022/01/10 02:40:32;;;;;;;9.73;4.00;;;;;;;;;;5092838;28;20047;-71
2022/01/10 02:42:58;;;;;;;11.82;4.68;;;1.40;99.90;;;;;;5074545;28;20048;-72
2022/01/10 02:45:24;;;;;;;14.48;5.30;;;1.40;99.90;;;;;;5092722;28;20123;-72
2022/01/10 02:47:51;;;;;;;12.48;5.20;;;1.40;99.90;;;;;;5074936;28;20128;-72
2022/01/10 02:50:18;;;;;;;12.15;5.18;;;1.40;99.90;;;;;;5092564;28;20040;-71
2022/01/10 02:52:44;;;;;;;10.48;4.03;;;1.40;99.90;;;;;;5074571;28;20050;-71
2022/01/10 02:55:11;;;;;;;11.90;4.32;;;1.30;99.90;;;;;;5108986;28;20043;-72
2022/01/10 02:57:37;;;;;;;10.35;4.30;;;1.10;99.90;;;;;;5091706;28;20043;-72
2022/01/10 03:00:13;;;;;;;13.73;5.47;;;1.30;99.90;;;;;;5076450;28;20380;-72
2022/01/10 03:02:41;;;;;;;13.88;5.60;;;;;;;;;;5091701;28;20102;-72
2022/01/10 03:05:08;;;;;;;12.88;4.70;;;1.30;99.90;;;;;;5091505;28;20044;-72
2022/01/10 03:07:33;;;;;;;9.95;4.70;;;1.30;99.90;;;;;;5092133;28;20040;-72
2022/01/10 03:09:59;;;;;;;12.95;5.30;;;1.30;99.90;;;;;;5090957;28;20168;-72
2022/01/10 03:12:26;;;;;;;8.13;3.97;;;1.20;99.90;;;;;;5108664;28;20100;-72
2022/01/10 03:14:51;;;;;;;8.93;3.78;;;1.20;99.90;;;;;;5091659;28;20036;-72
2022/01/10 03:17:17;;;;;;;11.70;4.88;;;1.20;99.90;;;;;;5091274;28;20173;-71
2022/01/10 03:19:45;;;;;;;14.02;6.18;;;1.20;99.90;;;;;;5092139;28;20119;-71
2022/01/10 03:22:10;;;;;;;13.23;5.32;;;1.20;99.90;;;;;;5090671;28;20040;-71
2022/01/10 03:24:36;;;;;;;7.65;4.32;;;2.80;99.90;;;;;;5091221;28;20036;-71
2022/01/10 03:27:02;;;;;;;19.27;6.13;;;1.20;99.90;;;;;;5074492;28;20121;-72
2022/01/10 03:29:29;;;;;;;11.90;5.32;;;;;;;;;;5091568;28;20093;-70
2022/01/10 03:31:54;;;;;;;10.95;4.00;;;1.20;99.90;;;;;;5073270;28;20044;-71
2022/01/10 03:34:20;;;;;;;10.75;5.32;;;1.10;99.90;;;;;;5091594;28;20042;-71
2022/01/10 03:36:46;;;;;;;12.70;5.20;;;0.90;99.90;;;;;;5102235;28;21251;-71
2022/01/10 03:39:13;;;;;;;12.68;5.65;;;1.00;99.90;;;;;;5089781;28;20043;-71
2022/01/10 03:41:39;;;;;;;9.52;4.45;;;1.00;99.90;;;;;;5074741;28;20066;-70
2022/01/10 03:44:07;;;;;;;9.90;5.10;;;1.50;99.90;;;;;;5090890;28;20097;-71
2022/01/10 03:46:33;;;;;;;15.15;6.22;;;1.10;99.90;;;;;;5090741;28;20086;-71
2022/01/10 03:49:03;;;;;;;16.20;5.88;;;1.20;99.90;;;;;;5074032;28;20523;-71
2022/01/10 03:51:30;;;;;;;10.68;4.70;;;1.10;99.90;;;;;;5091466;28;20036;-71
2022/01/10 03:53:55;;;;;;;13.00;5.53;;;1.10;99.90;;;;;;5089906;28;20119;-72
2022/01/10 03:56:23;;;;;;;10.13;4.95;;;1.10;99.90;;;;;;5080449;28;20127;-71
2022/01/10 03:58:49;;;;;;;17.02;5.78;;;1.10;99.90;;;;;;5111130;28;20055;-72
2022/01/10 04:01:15;;;;;;;15.73;6.20;;;1.10;99.90;;;;;;5110853;28;20032;-71
2022/01/10 04:03:41;;;;;;;16.52;6.53;;;1.10;99.90;;;;;;5111420;28;20039;-72
2022/01/10 04:06:07;;;;;;;14.65;7.32;;;1.10;99.90;;;;;;5111010;28;20096;-71
2022/01/10 04:08:34;;;;;;;13.43;6.03;;;1.10;99.90;;;;;;5094030;28;20131;-71
2022/01/10 04:11:00;;;;;;;10.98;5.80;;;1.10;99.90;;;;;;5093806;28;20043;-71
2022/01/10 04:13:26;;;;;;;15.52;5.80;;;1.10;99.90;;;;;;5090353;28;20048;-71
2022/01/10 04:15:52;;;;;;;13.23;6.30;;;1.10;99.90;;;;;;5090997;28;20048;-70
2022/01/10 04:18:18;;;;;;;14.65;5.95;;;1.00;99.90;;;;;;5107833;28;20086;-70
2022/01/10 04:20:45;;;;;;;19.77;8.38;;;1.10;99.90;;;;;;5080692;28;20495;-71
2022/01/10 04:23:12;;;;;;;16.35;7.63;;;1.10;99.90;;;;;;5111089;28;20074;-71
2022/01/10 04:25:37;;;;;;;10.43;5.43;;;1.10;99.90;;;;;;5111425;28;20048;-71
2022/01/10 04:28:03;;;;;;;14.35;5.95;;;1.00;99.90;;;;;;5109504;28;20055;-71
2022/01/10 04:30:29;;;;;;;17.45;6.22;;;1.00;99.90;;;;;;5111397;28;20054;-70
2022/01/10 04:32:57;;;;;;;14.27;6.60;;;1.00;99.90;;;;;;5110889;28;20388;-71
2022/01/10 04:35:23;;;;;;;11.05;5.45;;;1.00;99.90;;;;;;5082241;28;20153;-71
2022/01/10 04:37:49;;;;;;;11.82;5.85;;;1.00;99.90;;;;;;5093837;28;20047;-70
2022/01/10 04:40:15;;;;;;;13.80;6.78;;;0.90;99.90;;;;;;5110919;28;20043;-70
2022/01/10 04:42:41;;;;;;;12.25;6.93;;;0.90;99.90;;;;;;5110354;28;20046;-70
2022/01/10 04:45:07;;;;;;;17.13;7.18;;;0.90;99.90;;;;;;5110731;28;20035;-71
2022/01/10 04:47:33;;;;;;;12.98;6.32;;;1.20;99.90;;;;;;5111110;28;20039;-70
2022/01/10 04:52:27;;;;;;;21.85;8.88;;;1.00;99.90;;;;;;5090986;28;20507;-70
2022/01/10 04:54:53;;;;;;;15.27;7.05;;;1.00;99.90;;;;;;5090261;28;20052;-71
2022/01/10 04:57:19;;;;;;;21.70;9.40;;;1.00;99.90;;;;;;5090368;28;20591;-71
2022/01/10 04:59:45;;;;;;;15.18;8.25;;;1.00;99.90;;;;;;5090819;28;20424;-71
2022/01/10 05:02:10;;;;;;;19.63;8.75;;;0.90;99.90;;;;;;5090254;28;20063;-71
2022/01/10 05:04:37;;;;;;;20.48;8.93;;;1.00;99.90;;;;;;5089821;28;20028;-71
2022/01/10 05:07:03;;;;;;;22.05;8.82;;;1.00;99.90;;;;;;5090296;28;20164;-71
2022/01/10 05:09:28;;;;;;;19.98;8.98;;;1.00;99.90;;;;;;5073599;28;20502;-71
2022/01/10 05:11:55;;;;;;;21.40;10.02;;;0.90;99.90;;;;;;5089750;28;20040;-71
2022/01/10 05:14:21;;;;;;;21.15;9.77;;;1.10;99.90;;;;;;5099888;28;20040;-71
2022/01/10 05:16:47;;;;;;;38.00;11.60;;;0.60;99.90;;;;;;5090306;28;20390;-70
2022/01/10 05:19:13;;;;;;;29.35;11.82;;;1.00;99.90;;;;;;5111132;27;20069;-71
2022/01/10 05:21:39;;;;;;;25.25;11.75;;;1.00;99.90;;;;;;5094691;28;20127;-71
2022/01/10 05:24:05;;;;;;;49.08;14.43;;;1.00;99.90;;;;;;5109994;28;20520;-71
2022/01/10 05:26:31;;;;;;;26.00;12.52;;;1.00;99.90;;;;;;5094498;28;20083;-70
2022/01/10 05:28:57;;;;;;;30.70;12.13;;;2.70;99.90;;;;;;5105988;28;20535;-71
2022/01/10 05:31:23;;;;;;;37.50;13.07;;;1.10;99.90;;;;;;5073508;28;20485;-71
2022/01/10 05:33:49;;;;;;;24.05;12.35;;;1.10;99.90;;;;;;5089839;28;20046;-71
2022/01/10 05:36:15;;;;;;;22.27;12.45;;;1.10;99.90;;;;;;5110915;28;20032;-71
2022/01/10 05:38:41;;;;;;;39.97;16.27;;;1.10;99.90;;;;;;5113592;28;20046;-71
2022/01/10 05:41:06;;;;;;;33.50;11.55;;;1.00;99.90;;;;;;5113954;28;20050;-71
2022/01/10 05:43:33;;;;;;;33.78;11.57;;;;;;;;;;5114422;28;20039;-71
2022/01/10 05:45:59;;;;;;;37.22;14.23;;;1.00;99.90;;;;;;5113226;28;20108;-71
2022/01/10 05:48:28;;;;;;;24.33;11.60;;;2.00;99.90;;;;;;5081438;28;20131;-71
2022/01/10 05:50:54;;;;;;;25.05;11.48;;;;;;;;;;5076396;28;20427;-71
2022/01/10 05:53:20;;;;;;;50.40;13.63;;;1.00;99.90;;;;;;5093326;28;20040;-71
2022/01/10 05:55:47;;;;;;;46.35;13.32;;;1.00;99.90;;;;;;5093524;28;20055;-71
2022/01/10 05:58:13;;;;;;;80.00;22.20;;;1.00;99.90;;;;;;5076344;28;20060;-71
2022/01/10 06:00:39;;;;;;;25.65;13.70;;;1.30;99.90;;;;;;5076373;28;20374;-71
2022/01/10 06:03:05;;;;;;;24.30;11.30;;;1.00;99.90;;;;;;5092547;28;20131;-71
2022/01/10 06:05:31;;;;;;;21.33;10.43;;;1.00;99.90;;;;;;5093242;28;20036;-71
2022/01/10 06:07:58;;;;;;;23.25;10.90;;;1.00;99.90;;;;;;5075313;28;20036;-71
2022/01/10 06:10:24;;;;;;;20.67;11.77;;;1.00;99.90;;;;;;5093418;28;20044;-71
2022/01/10 06:12:50;;;;;;;52.38;16.15;;;0.90;99.90;;;;;;5075295;28;20051;-71
2022/01/10 06:15:16;;;;;;;70.03;20.45;;;0.90;99.90;;;;;;5093440;28;20036;-71
2022/01/10 06:17:41;;;;;;;59.35;17.05;;;0.90;99.90;;;;;;5093326;28;20079;-71
2022/01/10 06:20:08;;;;;;;62.65;18.85;;;0.90;99.90;;;;;;5104795;28;20043;-71
2022/01/10 06:22:34;;;;;;;59.60;16.95;;;0.90;99.90;;;;;;5113435;28;20054;-71
2022/01/10 06:25:00;;;;;;;34.70;15.13;;;;;;;;;;5112852;28;20051;-71
2022/01/10 06:27:26;;;;;;;24.88;13.73;;;0.90;99.90;;;;;;5094672;28;20115;-71
2022/01/10 06:29:52;;;;;;;36.38;17.30;;;0.80;99.90;;;;;;5109596;28;20127;-71
2022/01/10 06:32:18;;;;;;;48.03;20.55;;;0.90;99.90;;;;;;5110107;28;20189;-71
2022/01/10 06:34:44;;;;;;;50.17;21.80;;;0.90;99.90;;;;;;5092558;28;20035;-71
2022/01/10 06:37:09;;;;;;;55.67;23.88;;;0.90;99.90;;;;;;5109132;28;20054;-71
2022/01/10 06:39:35;;;;;;;75.82;30.42;;;0.90;99.90;;;;;;5075856;28;20476;-71
2022/01/10 06:42:01;;;;;;;40.28;22.88;;;0.90;99.90;;;;;;5091450;28;20404;-71
2022/01/10 06:44:26;;;;;;;66.00;27.88;;;0.90;99.90;;;;;;5110217;28;20048;-70
2022/01/10 06:46:53;;;;;;;58.40;29.52;;;0.90;99.90;;;;;;5075244;28;20068;-70
2022/01/10 06:49:19;;;;;;;42.25;20.05;;;0.90;99.90;;;;;;5075092;28;20121;-70
2022/01/10 06:51:45;;;;;;;50.17;21.90;;;0.80;99.90;;;;;;5109540;28;20501;-71
2022/01/10 06:54:10;;;;;;;34.80;22.55;;;0.90;99.90;;;;;;5091850;28;20047;-71
2022/01/10 06:56:36;;;;;;;45.95;24.92;;;0.90;99.90;;;;;;5092253;28;20048;-72
2022/01/10 06:59:02;;;;;;;41.05;20.27;;;1.00;99.90;;;;;;5092106;28;20044;-72
2022/01/10 07:01:28;;;;;;;48.65;21.05;;;0.90;99.90;;;;;;5092323;28;20075;-73
2022/01/10 07:03:56;;;;;;;52.47;21.63;;;0.90;99.90;;;;;;5074069;28;20483;-73
2022/01/10 07:06:21;;;;;;;71.07;27.35;;;0.90;99.90;;;;;;5075656;28;20104;-72
2022/01/10 07:08:47;;;;;;;63.08;27.05;;;0.90;99.90;;;;;;5108378;28;20492;-73
2022/01/10 07:11:13;;;;;;;71.85;30.92;;;0.90;99.90;;;;;;5091440;28;20172;-72
2022/01/10 07:13:38;;;;;;;72.00;30.23;;;0.90;99.90;;;;;;5092069;28;20122;-72
2022/01/10 07:16:04;;;;;;;46.22;23.95;;;0.90;99.90;;;;;;5091047;28;20119;-72
2022/01/10 07:18:30;;;;;;;90.20;36.95;;;2.30;99.90;;;;;;5091765;28;20082;-72
2022/01/10 07:20:56;;;;;;;28.92;21.20;;;;;;;;;;5091045;28;20047;-72
2022/01/10 07:23:23;;;;;;;38.78;27.25;;;0.90;99.90;;;;;;5108925;28;20067;-73
2022/01/10 07:25:49;;;;;;;32.70;20.33;;;1.00;99.90;;;;;;5111876;28;20117;-73
2022/01/10 07:28:15;;;;;;;32.55;21.77;;;0.90;99.90;;;;;;5111549;28;20058;-72
2022/01/10 07:30:41;;;;;;;33.13;20.17;;;0.80;99.90;;;;;;5079635;28;20068;-72
2022/01/10 07:33:07;;;;;;;28.10;19.02;;;0.90;99.90;;;;;;5074247;28;20120;-73
2022/01/10 07:35:32;;;;;;;83.88;40.63;;;0.90;99.90;;;;;;5092041;28;20036;-73
2022/01/10 07:37:58;;;;;;;27.35;20.08;;;0.90;99.90;;;;;;5081337;28;20040;-73
2022/01/10 07:40:24;;;;;;;24.83;16.75;;;0.80;99.90;;;;;;5095103;28;20083;-73
2022/01/10 07:42:50;;;;;;;25.58;18.15;;;0.80;99.90;;;;;;5111545;28;20054;-73
2022/01/10 07:45:16;;;;;;;22.92;16.05;;;0.90;99.90;;;;;;5097825;28;20035;-73
2022/01/10 07:47:42;;;;;;;26.20;18.05;;;0.80;99.90;;;;;;5074641;28;20040;-73
2022/01/10 07:50:08;;;;;;;25.67;15.88;;;0.90;99.90;;;;;;5103489;28;20031;-72
2022/01/10 07:52:34;;;;;;;21.88;15.43;;;0.80;99.90;;;;;;5111368;28;20046;-73
2022/01/10 07:55:00;;;;;;;31.33;19.83;;;0.90;99.90;;;;;;5095504;28;20044;-72
2022/01/10 07:57:26;;;;;;;26.95;16.73;;;0.90;99.90;;;;;;5091082;28;20040;-72
2022/01/10 07:59:51;;;;;;;25.10;16.27;;;0.90;99.90;;;;;;5090624;28;20447;-73
2022/01/10 08:02:20;;;;;;;30.52;17.35;;;0.90;99.90;;;;;;5091321;28;20024;-71
2022/01/10 08:04:46;;;;;;;25.02;17.23;;;0.90;99.90;;;;;;5072740;28;20042;-70
2022/01/10 08:07:12;;;;;;;23.38;14.80;;;0.90;99.90;;;;;;5110685;28;20039;-70
2022/01/10 08:09:37;;;;;;;28.65;16.65;;;0.90;99.90;;;;;;5111496;28;20039;-70
2022/01/10 08:12:04;;;;;;;27.30;17.58;;;0.90;99.90;;;;;;5110750;28;20157;-70
2022/01/10 08:14:30;;;;;;;28.60;18.48;;;0.90;99.90;;;;;;5109329;28;20043;-70
2022/01/10 08:16:57;;;;;;;36.22;22.15;;;0.90;99.90;;;;;;5111235;28;20092;-69
2022/01/10 08:19:23;;;;;;;34.97;25.08;;;0.90;99.90;;;;;;5094650;28;20504;-68
2022/01/10 08:21:49;;;;;;;40.00;25.23;;;0.90;99.90;;;;;;5102375;28;20048;-69
2022/01/10 08:24:14;;;;;;;38.58;25.55;;;0.90;99.90;;;;;;5080836;28;20036;-69
2022/01/10 08:26:40;;;;;;;32.90;21.73;;;0.90;99.90;;;;;;5090175;28;20158;-69
2022/01/10 08:29:07;;;;;;;33.97;20.70;;;;;;;;;;5090135;28;20408;-70
2022/01/10 08:31:33;;;;;;;30.52;20.67;;;1.00;99.90;;;;;;5090929;28;20136;-69
2022/01/10 08:34:01;;;;;;;27.02;19.02;;;0.90;99.90;;;;;;5070783;28;20036;-68
2022/01/10 08:36:28;;;;;;;28.58;20.70;;;1.00;99.90;;;;;;5088501;28;20679;-70
2022/01/10 08:38:54;;;;;;;38.65;20.98;;;1.00;99.90;;;;;;5071432;28;20043;-70
2022/01/10 08:41:20;;;;;;;34.50;22.42;;;1.00;99.90;;;;;;5103777;28;20071;-72
2022/01/10 08:43:46;;;;;;;33.72;21.02;;;1.10;99.90;;;;;;5089251;28;20083;-70
2022/01/10 08:46:12;;;;;;;34.33;21.48;;;1.10;99.90;;;;;;5087998;28;20058;-67
2022/01/10 08:48:38;;;;;;;42.20;24.33;;;1.10;99.90;;;;;;5087822;28;20048;-70
2022/01/10 08:51:03;;;;;;;31.15;20.65;;;1.10;99.90;;;;;;5074435;28;20389;-70
2022/01/10 08:53:29;;;;;;;46.35;25.50;;;;;;;;;;5075726;28;20122;-70
2022/01/10 08:55:56;;;;;;;37.20;23.75;;;;;;;;;;5091727;28;20083;-70
2022/01/10 08:58:22;;;;;;;33.13;22.45;;;;;;;;;;5087859;28;20570;-70
2022/01/10 09:00:48;;;;;;;32.65;21.17;;;;;;;;;;5073368;28;20074;-70
2022/01/10 09:03:14;;;;;;;35.90;22.08;;;;;;;;;;5073716;28;20048;-70
2022/01/10 09:05:40;;;;;;;36.58;23.83;;;;;;;;;;5108386;28;20036;-70
2022/01/10 09:08:07;;;;;;;36.53;22.38;;;;;;;;;;5073239;28;20054;-71
2022/01/10 09:10:33;;;;;;;34.72;22.73;;;;;;;;;;5092409;28;20135;-71
2022/01/10 09:12:59;;;;;;;33.13;21.90;;;;;;;;;;5090213;28;20047;-71
2022/01/10 09:15:25;;;;;;;38.15;24.90;;;;;;;;;;5102647;28;20113;-71
2022/01/10 09:17:51;;;;;;;37.28;25.00;;;;;;;;;;5106973;28;20100;-71
2022/01/10 09:20:17;;;;;;;37.55;24.23;;;;;;;;;;5092200;28;20047;-71
2022/01/10 09:22:43;;;;;;;41.55;23.55;;;;;;;;;;5075057;28;20036;-71
2022/01/10 09:25:09;;;;;;;35.38;25.15;;;;;;;;;;5073300;28;20071;-71
2022/01/10 09:27:35;;;;;;;47.53;27.58;;;;;;;;;;5088704;28;20105;-71
2022/01/10 09:30:01;;;;;;;41.03;26.92;;;;;;;;;;5099531;28;20047;-71
2022/01/10 09:32:27;;;;;;;38.63;25.80;;;1.80;99.90;;;;;;5091086;28;20059;-71
2022/01/10 09:34:53;;;;;;;39.92;26.27;;;;;;;;;;5084702;28;20035;-71
2022/01/10 09:37:19;;;;;;;35.45;24.65;;;;;;;;;;5095086;28;20093;-71
2022/01/10 09:39:45;;;;;;;39.30;25.55;;;;;;;;;;5075534;28;20044;-71
2022/01/10 09:42:12;;;;;;;43.22;27.65;;;2.10;99.90;;;;;;5088418;28;20044;-71
2022/01/10 09:44:39;;;;;;;39.20;24.63;;;;;;;;;;5089156;28;20101;-71
2022/01/10 09:47:05;;;;;;;43.78;25.08;;;;;;;;;;5096502;28;20460;-71
2022/01/10 09:49:31;;;;;;;40.80;26.38;;;;;;;;;;5089739;28;20503;-73
2022/01/10 09:51:56;;;;;;;38.55;25.65;;;2.30;99.90;;;;;;5075972;28;20043;-71
2022/01/10 09:54:22;;;;;;;40.63;26.73;;;2.30;99.90;;;;;;5104716;28;20469;-72
2022/01/10 09:56:49;;;;;;;39.35;27.05;;;2.40;99.90;;;;;;5093105;28;20385;-72
2022/01/10 09:59:15;;;;;;;41.05;28.30;;;2.60;99.90;;;;;;5081461;28;20043;-72
2022/01/10 10:01:43;;;;;;;41.17;28.10;;;2.40;99.90;;;;;;5107314;28;20135;-73
2022/01/10 10:04:14;;;;;;;42.72;26.75;;;2.50;99.90;;;;;;5088148;28;20483;-73
2022/01/10 10:06:40;;;;;;;44.75;28.10;;;2.70;99.90;;;;;;5091440;28;20048;-73
2022/01/10 10:09:07;;;;;;;38.75;25.88;;;2.50;99.90;;;;;;5093801;28;20567;-73
2022/01/10 10:11:42;;;;;;;40.17;25.63;;;2.50;99.90;;;;;;5106918;28;20043;-72
2022/01/10 10:14:11;;;;;;;47.03;28.98;;;;;;;;;;5083370;28;20085;-71
2022/01/10 10:16:41;;;;;;;42.50;27.88;;;;;;;;;;5090200;28;20119;-72
2022/01/10 10:19:07;;;;;;;43.35;27.40;;;2.80;99.90;;;;;;5071487;28;20097;-72
2022/01/10 10:21:33;;;;;;;37.72;25.95;;;2.90;99.90;;;;;;5074829;28;20044;-72
2022/01/10 10:24:00;;;;;;;43.67;26.95;;;2.90;99.90;;;;;;5076893;28;20048;-72
2022/01/10 10:26:26;;;;;;;40.53;27.35;;;2.80;99.90;;;;;;5070007;28;20052;-74
2022/01/10 10:28:55;;;;;;;35.13;26.33;;;3.00;99.90;;;;;;5092484;28;20124;-73
2022/01/10 10:31:36;;;;;;;45.25;28.30;;;2.90;99.90;;;;;;5090712;28;20454;-73
2022/01/10 10:34:04;;;;;;;33.95;24.45;;;3.10;99.90;;;;;;5089627;28;20479;-73
2022/01/10 10:36:31;;;;;;;45.97;30.45;;;;;;;;;;5100038;28;20048;-73
2022/01/10 10:38:58;;;;;;;42.88;29.55;;;3.20;99.90;;;;;;5094730;28;20040;-73
2022/01/10 10:41:24;;;;;;;42.30;26.77;;;3.20;99.90;;;;;;5071622;28;20137;-73
2022/01/10 10:43:51;;;;;;;47.10;28.88;;;3.30;99.90;;;;;;5090068;28;20412;-73
2022/01/10 10:46:18;;;;;;;47.55;30.42;;;;;;;;;;5090754;28;20121;-73
2022/01/10 10:48:59;;;;;;;40.55;27.88;;;3.30;99.90;;;;;;5090915;28;20044;-73
2022/01/10 10:51:30;;;;;;;45.92;28.55;;;3.50;99.90;;;;;;5100343;28;20050;-73
2022/01/10 10:54:07;;;;;;;40.25;27.08;;;3.60;99.90;;;;;;5089014;28;20083;-73
2022/01/10 10:56:42;;;;;;;46.00;28.67;;;3.70;99.90;;;;;;5086640;28;20125;-73
2022/01/10 10:59:08;;;;;;;36.47;25.20;;;;;;;;;;5089862;27;20079;-73
2022/01/10 11:01:39;;;;;;;35.42;26.50;;;;;;;;;;5086472;28;20051;-73
2022/01/10 11:04:14;;;;;;;39.88;25.63;;;;;;;;;;5062832;28;20061;-73
2022/01/10 11:06:40;;;;;;;42.15;27.48;;;4.10;99.90;;;;;;5098120;28;20054;-73
2022/01/10 11:09:09;;;;;;;42.92;24.77;;;7.40;99.90;;;;;;5089102;28;20044;-73
2022/01/10 11:11:35;;;;;;;39.20;26.60;;;;;;;;;;5072963;28;20415;-74
2022/01/10 11:14:02;;;;;;;32.55;22.10;;;;;;;;;;5087917;28;20180;-73
2022/01/10 11:16:29;;;;;;;32.60;22.73;;;;;;;;;;5089236;28;20482;-72
2022/01/10 11:18:55;;;;;;;32.33;22.15;;;;;;;;;;5072159;28;20036;-73
2022/01/10 11:21:25;;;;;;;33.40;22.67;;;4.30;99.90;;;;;;5091381;28;20510;-74
2022/01/10 11:23:52;;;;;;;44.75;23.88;;;4.30;99.90;;;;;;5079858;28;20040;-74
2022/01/10 11:26:18;;;;;;;35.42;23.23;;;4.30;99.90;;;;;;5092220;28;20044;-75
2022/01/10 11:28:52;;;;;;;37.90;24.45;;;4.40;99.90;;;;;;5108563;28;20051;-74
2022/01/10 11:31:23;;;;;;;34.85;23.10;;;;;;;;;;5091545;28;20488;-75
2022/01/10 11:33:49;;;;;;;34.33;22.40;;;;;;;;;;5088275;28;20039;-75
2022/01/10 11:36:15;;;;;;;31.25;21.23;;;4.60;99.90;;;;;;5082271;28;20032;-71
2022/01/10 11:38:44;;;;;;;32.78;21.15;;;4.70;99.90;;;;;;5104738;28;20051;-73
2022/01/10 11:41:15;;;;;;;32.83;21.10;;;4.60;99.90;;;;;;5074403;28;20075;-73
2022/01/10 11:44:06;;;;;;;30.63;19.95;;;4.90;99.90;;;;;;5107661;28;20048;-73
2022/01/10 11:46:38;;;;;;;32.13;21.00;;;4.80;99.90;;;;;;5091715;28;20123;-74
2022/01/10 11:49:09;;;;;;;32.28;21.05;;;4.90;99.90;;;;;;5073806;28;20047;-74
2022/01/10 11:51:56;;;;;;;32.20;20.48;;;4.90;99.90;;;;;;5074036;28;20040;-74
2022/01/10 11:54:38;;;;;;;33.20;20.40;;;4.90;99.90;;;;;;5108172;28;20072;-73
2022/01/10 11:57:06;;;;;;;28.27;19.67;;;4.90;99.90;;;;;;5086674;28;20075;-69
2022/01/10 11:59:42;;;;;;;30.40;20.40;;;4.90;99.90;;;;;;5090961;28;20396;-69
2022/01/10 12:02:10;;;;;;;38.00;20.95;;;5.00;99.90;;;;;;5090997;28;20051;-69
2022/01/10 12:04:43;;;;;;;33.28;20.92;;;5.00;99.90;;;;;;5072857;28;20145;-69
2022/01/10 12:07:15;;;;;;;33.42;21.30;;;5.00;99.90;;;;;;5073956;28;20040;-68
2022/01/10 12:09:41;;;;;;;26.48;19.20;;;5.10;99.90;;;;;;5091245;28;20048;-68
2022/01/10 12:12:09;;;;;;;33.67;19.33;;;5.10;99.90;;;;;;5090022;28;20036;-69
2022/01/10 12:14:36;;;;;;;34.35;21.23;;;5.20;99.90;;;;;;5074681;28;20040;-68
2022/01/10 12:17:02;;;;;;;35.03;19.17;;;5.20;99.90;;;;;;5090753;28;20437;-68
2022/01/10 12:19:28;;;;;;;31.02;19.65;;;5.30;99.90;;;;;;5091056;28;20043;-69
2022/01/10 12:21:54;;;;;;;34.28;20.80;;;5.30;99.90;;;;;;5090408;28;20548;-70
2022/01/10 12:24:21;;;;;;;28.17;18.65;;;5.30;99.90;;;;;;5091104;28;20051;-69
2022/01/10 12:26:47;;;;;;;28.77;18.10;;;5.40;99.90;;;;;;5090066;28;20089;-69
2022/01/10 12:29:14;;;;;;;37.92;20.98;;;5.40;99.90;;;;;;5090383;28;20408;-69
2022/01/10 12:31:42;;;;;;;28.83;19.90;;;5.50;99.90;;;;;;5090930;28;20036;-68
2022/01/10 12:34:12;;;;;;;28.55;18.65;;;5.50;99.90;;;;;;5091069;28;20081;-69
2022/01/10 12:36:39;;;;;;;28.65;16.63;;;5.60;99.90;;;;;;5090721;28;20497;-69
2022/01/10 12:39:15;;;;;;;30.55;18.67;;;5.40;99.90;;;;;;5089932;28;20040;-69
2022/01/10 12:41:41;;;;;;;25.35;16.63;;;5.30;99.90;;;;;;5090098;28;20048;-69
2022/01/10 12:44:07;;;;;;;26.42;16.75;;;5.70;99.90;;;;;;5089949;28;20066;-69
2022/01/10 12:46:33;;;;;;;29.17;17.67;;;6.00;99.90;;;;;;5090382;28;20044;-69
2022/01/10 12:49:05;;;;;;;22.55;16.17;;;5.70;99.90;;;;;;5089552;28;20044;-69
2022/01/10 12:51:39;;;;;;;26.23;16.67;;;5.70;99.90;;;;;;5073997;28;20405;-72
2022/01/10 12:54:11;;;;;;;30.38;17.33;;;6.20;99.90;;;;;;5089717;28;20032;-72
2022/01/10 12:56:36;;;;;;;27.48;17.73;;;5.80;99.90;;;;;;5091446;28;20142;-72
2022/01/10 12:59:03;;;;;;;25.92;16.63;;;5.80;99.90;;;;;;5090007;28;20122;-72
2022/01/10 13:01:29;;;;;;;30.08;17.50;;;5.80;99.90;;;;;;5073375;28;20040;-72
2022/01/10 13:04:00;;;;;;;24.98;16.05;;;5.80;99.90;;;;;;5089631;28;20437;-72
2022/01/10 13:06:30;;;;;;;26.45;17.33;;;5.70;99.90;;;;;;5090114;28;20079;-72